Time;durP1;ratioP1;P1;durP2;ratioP2;P2;SDS_P1;SDS_P2;PMS_P1;PMS_P2;Temp;Humidity;BMP_temperature;BMP_pressure;BME280_temperature;BME280_humidity;BME280_pressure;Samples;Min_cycle;Max_cycle;Signal;HPM_P1;HPM_P2
2023/01/30 00:00:34;;;;;;;21.75;10.77;;;;;;;-0.50;100.00;98752.19;5157752;27;20392;-70
2023/01/30 00:03:00;;;;;;;21.42;11.02;;;;;;;-0.63;100.00;98753.81;5157308;27;20042;-66
2023/01/30 00:05:27;;;;;;;25.00;13.23;;;;;;;-0.30;100.00;98748.25;5157585;27;20065;-67
2023/01/30 00:07:53;;;;;;;27.60;12.20;;;;;;;-0.40;100.00;98761.94;5157397;27;20051;-66
2023/01/30 00:10:20;;;;;;;29.58;12.75;;;;;;;-0.41;100.00;98747.69;5157424;27;20339;-69
2023/01/30 00:12:46;;;;;;;19.33;10.13;;;;;;;-0.67;100.00;98744.72;5159746;27;20053;-68
2023/01/30 00:15:12;;;;;;;23.73;10.93;;;;;;;-0.39;100.00;98750.09;5160755;27;20050;-67
2023/01/30 00:17:38;;;;;;;21.98;10.57;;;;;;;-0.46;100.00;98739.72;5160860;27;20043;-69
2023/01/30 00:20:05;;;;;;;25.27;10.60;;;;;;;-0.35;100.00;98748.38;5160801;27;20122;-65
2023/01/30 00:22:32;;;;;;;17.67;8.27;;;;;;;-0.25;100.00;98742.78;5161035;27;20061;-68
2023/01/30 00:24:58;;;;;;;18.70;9.88;;;;;;;-0.38;100.00;98754.38;5160674;27;20069;-69
2023/01/30 00:27:24;;;;;;;19.65;9.52;;;;;;;-0.49;100.00;98748.41;5160987;27;20107;-65
2023/01/30 00:29:51;;;;;;;19.60;9.85;;;;;;;-0.43;100.00;98738.31;5160478;27;20110;-68
2023/01/30 00:32:17;;;;;;;17.60;8.82;;;;;;;-0.35;100.00;98745.69;5160698;27;20054;-65
2023/01/30 00:34:43;;;;;;;19.42;10.30;;;;;;;-0.21;100.00;98748.34;5160484;27;20054;-68
2023/01/30 00:37:09;;;;;;;19.85;9.98;;;;;;;-0.33;100.00;98748.88;5160858;27;20054;-64
2023/01/30 00:39:36;;;;;;;20.77;10.98;;;;;;;-0.35;100.00;98751.88;5160563;27;20050;-68
2023/01/30 00:47:31;;;;;;;29.58;12.20;;;;;;;-0.02;100.00;98740.91;5160354;27;19933;-64
2023/01/30 00:49:57;;;;;;;17.17;9.07;;;;;;;-0.20;100.00;98742.66;5160822;27;20062;-67
2023/01/30 00:52:23;;;;;;;21.50;10.15;;;;;;;-0.44;100.00;98734.81;5160087;27;20312;-64
2023/01/30 00:54:51;;;;;;;15.05;8.05;;;;;;;-0.06;100.00;98729.16;5160271;27;20114;-66
2023/01/30 00:57:17;;;;;;;18.73;10.20;;;;;;;-0.24;100.00;98726.28;5160697;27;20047;-70
2023/01/30 00:59:43;;;;;;;21.67;10.18;;;;;;;-0.17;100.00;98719.69;5160107;27;20050;-66
2023/01/30 01:02:09;;;;;;;18.88;9.02;;;;;;;-0.34;100.00;98718.44;5160042;27;20059;-70
2023/01/30 01:04:42;;;;;;;23.40;10.80;;;;;;;0.01;100.00;98707.16;5160217;27;20054;-65
2023/01/30 01:07:08;;;;;;;17.95;9.68;;;;;;;-0.38;100.00;98705.91;5160204;27;20090;-70
2023/01/30 01:09:34;;;;;;;19.10;9.75;;;;;;;-0.37;100.00;98715.56;5159993;27;20046;-67
2023/01/30 01:12:01;;;;;;;28.92;12.88;;;;;;;-0.35;100.00;98706.09;5160251;27;20396;-68
2023/01/30 01:14:28;;;;;;;19.17;10.15;;;;;;;-0.13;100.00;98709.91;5159797;27;20051;-70
2023/01/30 01:16:54;;;;;;;17.55;8.98;;;;;;;-0.25;100.00;98696.97;5160313;27;20058;-66
2023/01/30 01:19:20;;;;;;;21.48;9.30;;;;;;;-0.42;100.00;98700.31;5160338;27;20051;-70
2023/01/30 01:21:46;;;;;;;18.10;8.90;;;;;;;-0.20;100.00;98696.88;5159890;27;20058;-67
2023/01/30 01:24:14;;;;;;;20.52;8.93;;;;;;;-0.19;100.00;98684.97;5158392;27;20052;-69
2023/01/30 01:26:41;;;;;;;17.35;9.98;;;;;;;-0.24;100.00;98683.19;5159555;27;20106;-67
2023/01/30 01:29:11;;;;;;;18.27;9.02;;;;;;;-0.40;100.00;98671.19;5159715;27;20053;-68
2023/01/30 01:31:37;;;;;;;14.52;8.77;;;;;;;-0.31;100.00;98669.34;5159492;27;20255;-66
2023/01/30 01:34:03;;;;;;;18.42;8.52;;;;;;;-0.27;100.00;98669.53;5159669;27;20054;-65
2023/01/30 01:36:30;;;;;;;18.77;9.30;;;;;;;-0.40;100.00;98660.44;5159414;27;20058;-68
2023/01/30 01:38:57;;;;;;;14.43;8.48;;;;;;;-0.09;100.00;98654.31;5159902;27;20047;-63
2023/01/30 01:41:23;;;;;;;19.10;9.05;;;;;;;-0.44;100.00;98631.69;5159360;27;20057;-65
2023/01/30 01:44:01;;;;;;;19.17;7.97;;;;;;;-0.16;100.00;98635.09;5159826;27;20050;-69
2023/01/30 01:46:33;;;;;;;16.83;8.65;;;;;;;-0.31;100.00;98628.94;5159239;27;20055;-65
2023/01/30 01:49:04;;;;;;;19.45;9.93;;;;;;;-0.28;100.00;98633.72;5159487;27;20331;-67
2023/01/30 01:51:36;;;;;;;21.15;10.32;;;;;;;-0.09;100.00;98630.06;5159263;27;20055;-65
2023/01/30 01:54:07;;;;;;;16.23;8.52;;;;;;;-0.54;100.00;98630.81;5159362;27;20060;-65
2023/01/30 01:56:38;;;;;;;18.80;9.25;;;;;;;-0.26;100.00;98619.97;5159014;27;20448;-64
2023/01/30 01:59:10;;;;;;;14.73;7.85;;;;;;;-0.26;100.00;98611.88;5159080;27;20043;-67
2023/01/30 02:01:37;;;;;;;16.80;7.75;;;;;;;-0.21;100.00;98602.88;5159362;27;20050;-70
2023/01/30 02:04:07;;;;;;;18.13;8.43;;;;;;;-0.27;100.00;98604.88;5158937;27;20054;-65
2023/01/30 02:06:35;;;;;;;15.10;8.60;;;;;;;-0.36;100.00;98587.91;5159568;27;20133;-69
2023/01/30 02:09:05;;;;;;;28.65;9.77;;;;;;;-0.20;100.00;98582.91;5159151;27;20334;-65
2023/01/30 02:11:39;;;;;;;22.98;11.13;;;;;;;-0.37;100.00;98581.69;5158849;27;20404;-66
2023/01/30 02:14:06;;;;;;;26.33;11.02;;;;;;;-0.24;100.00;98580.81;5158929;27;20050;-68
2023/01/30 02:16:33;;;;;;;19.45;10.15;;;;;;;-0.35;100.00;98574.09;5158972;27;20051;-67
2023/01/30 02:19:00;;;;;;;20.35;9.25;;;;;;;-0.40;100.00;98573.44;5158836;27;20062;-65
2023/01/30 02:22:15;;;;;;;19.95;9.40;;;;;;;-0.38;100.00;98558.56;5158613;27;20046;-69
2023/01/30 02:25:13;;;;;;;22.48;11.07;;;;;;;-0.32;100.00;98561.94;5159220;27;20043;-68
2023/01/30 02:28:21;;;;;;;21.38;11.05;;;;;;;-0.51;100.00;98557.53;5159006;27;20051;-65
2023/01/30 02:31:10;;;;;;;23.42;9.27;;;;;;;-0.25;100.00;98535.34;5158608;27;20068;-69
2023/01/30 02:33:45;;;;;;;16.52;8.70;;;;;;;-0.20;100.00;98542.50;5158940;27;20043;-67
2023/01/30 02:36:20;;;;;;;17.65;8.55;;;;;;;-0.36;100.00;98528.66;5158053;27;20050;-65
2023/01/30 02:38:54;;;;;;;20.15;8.95;;;;;;;-0.14;100.00;98523.19;5158486;27;20057;-66
2023/01/30 02:41:29;;;;;;;23.43;10.93;;;;;;;-0.35;100.00;98517.53;5159011;27;20078;-64
2023/01/30 02:44:04;;;;;;;29.65;11.40;;;;;;;-0.24;100.00;98508.09;5158401;27;20291;-67
2023/01/30 02:46:33;;;;;;;;;;;;;;;-0.38;100.00;98511.97;5159427;27;20054;-65
2023/01/30 02:49:04;;;;;;;21.83;10.35;;;;;;;-0.54;100.00;98500.81;5158408;27;19923;-68
2023/01/30 02:51:34;;;;;;;18.90;9.52;;;;;;;-0.43;100.00;98488.69;5159108;27;20058;-69
2023/01/30 02:54:00;;;;;;;27.02;11.07;;;;;;;-0.61;100.00;98473.53;5158167;27;20050;-65
2023/01/30 02:56:27;;;;;;;23.23;10.23;;;;;;;-0.40;100.00;98460.31;5158211;27;20488;-70
2023/01/30 02:58:57;;;;;;;23.02;10.27;;;;;;;-0.40;100.00;98446.84;5158511;27;20050;-69
2023/01/30 03:01:58;;;;;;;22.95;10.15;;;;;;;-0.57;100.00;98434.91;5158080;27;20051;-66
2023/01/30 03:04:36;;;;;;;26.25;10.60;;;;;;;-0.42;100.00;98436.41;5102827;27;20058;-67
2023/01/30 03:07:16;;;;;;;22.15;11.15;;;;;;;-0.62;100.00;98429.66;5158099;27;20047;-69
2023/01/30 03:09:50;;;;;;;20.33;9.35;;;;;;;-0.44;100.00;98403.59;5158557;27;20043;-70
2023/01/30 03:12:25;;;;;;;20.38;9.57;;;;;;;-0.31;100.00;98401.91;5158304;27;20315;-70
2023/01/30 03:14:53;;;;;;;;;;;;;;;-0.66;100.00;98406.38;5158586;27;20061;-65
2023/01/30 03:17:23;;;;;;;24.45;9.63;;;;;;;-0.44;100.00;98392.81;5158206;27;19922;-69
2023/01/30 03:19:51;;;;;;;21.02;10.43;;;;;;;-0.56;100.00;98396.13;5157866;27;20108;-68
2023/01/30 03:22:17;;;;;;;19.25;7.95;;;;;;;-0.52;100.00;98380.94;5158261;27;20054;-68
2023/01/30 03:24:43;;;;;;;14.05;7.68;;;;;;;-0.71;100.00;98381.16;5157880;27;20297;-67
2023/01/30 03:27:11;;;;;;;21.27;9.10;;;;;;;-0.66;100.00;98358.72;5158321;27;20107;-66
2023/01/30 03:29:38;;;;;;;16.40;8.30;;;;;;;-0.75;100.00;98342.50;5157733;27;20061;-67
2023/01/30 03:32:05;;;;;;;19.88;9.50;;;;;;;-0.68;100.00;98336.69;5158184;27;20476;-68
2023/01/30 03:34:32;;;;;;;17.95;9.73;;;;;;;-0.65;100.00;98341.44;5158005;27;20057;-69
2023/01/30 03:36:58;;;;;;;19.27;8.60;;;;;;;-0.78;100.00;98326.19;5157616;27;20051;-66
2023/01/30 03:39:25;;;;;;;18.08;9.20;;;;;;;-0.70;100.00;98320.03;5157950;27;20315;-68
2023/01/30 03:41:52;;;;;;;22.88;11.82;;;;;;;-0.62;100.00;98316.59;5157750;27;20055;-69
2023/01/30 03:44:19;;;;;;;25.70;10.48;;;;;;;-0.58;100.00;98300.59;5157759;27;20049;-67
2023/01/30 03:46:45;;;;;;;15.82;7.47;;;;;;;-0.83;100.00;98310.19;5158687;27;20377;-68
2023/01/30 03:49:12;;;;;;;17.90;9.38;;;;;;;-0.75;100.00;98304.03;5161638;27;20057;-67
2023/01/30 03:51:38;;;;;;;20.02;9.88;;;;;;;-0.69;100.00;98292.03;5161249;27;20205;-66
2023/01/30 03:54:05;;;;;;;18.70;10.13;;;;;;;-0.68;100.00;98285.53;5161488;27;20067;-67
2023/01/30 03:56:31;;;;;;;17.42;8.82;;;;;;;-0.66;100.00;98283.34;5161139;27;20046;-66
2023/01/30 03:58:57;;;;;;;19.52;9.05;;;;;;;-0.53;100.00;98268.97;5161557;27;20234;-65
2023/01/30 04:01:23;;;;;;;18.90;10.25;;;;;;;-0.45;100.00;98271.97;5160918;27;20134;-67
2023/01/30 04:03:51;;;;;;;19.95;9.98;;;;;;;-0.68;100.00;98280.16;5160909;27;20050;-67
2023/01/30 04:06:17;;;;;;;18.75;8.75;;;;;;;-0.63;100.00;98273.81;5161153;27;20050;-69
2023/01/30 04:08:44;;;;;;;18.33;9.95;;;;;;;-0.62;100.00;98276.22;5161115;27;20139;-64
2023/01/30 04:11:10;;;;;;;21.02;9.80;;;;;;;-0.48;100.00;98284.94;5161123;27;20061;-67
2023/01/30 04:13:37;;;;;;;20.95;10.13;;;;;;;-0.54;100.00;98283.50;5160731;27;20048;-67
2023/01/30 04:16:18;;;;;;;14.85;8.60;;;;;;;-0.71;100.00;98284.25;5161454;27;20050;-66
2023/01/30 04:18:44;;;;;;;19.65;9.98;;;;;;;-0.59;100.00;98272.13;5161175;27;20051;-66
2023/01/30 04:21:11;;;;;;;17.42;8.82;;;;;;;-0.60;100.00;98260.56;5160964;27;20050;-69
2023/01/30 04:23:37;;;;;;;20.55;11.23;;;;;;;-0.64;100.00;98259.56;5160898;27;20428;-67
2023/01/30 04:26:04;;;;;;;16.63;8.70;;;;;;;-0.66;100.00;98242.16;5161111;27;20073;-64
2023/01/30 04:28:31;;;;;;;17.50;9.85;;;;;;;-0.61;100.00;98228.53;5160501;27;20050;-65
2023/01/30 04:30:57;;;;;;;19.83;9.38;;;;;;;-0.64;100.00;98227.28;5160743;27;20064;-67
2023/01/30 04:33:24;;;;;;;15.38;7.25;;;;;;;-0.34;100.00;98219.41;5160802;27;20056;-67
2023/01/30 04:35:54;;;;;;;14.55;8.52;;;;;;;-0.61;100.00;98225.84;5160669;27;20059;-68
2023/01/30 04:38:20;;;;;;;17.08;8.27;;;;;;;-0.57;100.00;98230.28;5160526;27;20042;-68
2023/01/30 04:40:51;;;;;;;15.13;7.90;;;;;;;-0.64;100.00;98232.66;5160295;27;20465;-67
2023/01/30 04:43:18;;;;;;;13.98;8.50;;;;;;;-0.72;100.00;98228.84;5160650;27;20043;-65
2023/01/30 04:45:45;;;;;;;21.35;9.85;;;;;;;-0.65;100.00;98224.91;5160389;27;20047;-69
2023/01/30 04:48:11;;;;;;;15.23;8.55;;;;;;;-0.39;100.00;98219.56;5160595;27;20057;-66
2023/01/30 04:50:37;;;;;;;17.00;10.02;;;;;;;0.21;100.00;98230.31;5160112;27;20050;-68
2023/01/30 04:53:04;;;;;;;17.45;9.60;;;;;;;0.51;100.00;98253.91;5160125;27;20046;-65
2023/01/30 04:55:30;;;;;;;11.93;6.85;;;;;;;0.33;100.00;98264.69;5160155;27;20058;-68
2023/01/30 04:57:56;;;;;;;20.98;8.32;;;;;;;0.60;100.00;98260.06;5160122;27;20087;-70
2023/01/30 05:00:24;;;;;;;19.63;10.75;;;;;;;0.83;100.00;98249.84;5160195;27;20069;-67
2023/01/30 05:02:51;;;;;;;17.08;9.68;;;;;;;1.00;100.00;98222.81;5159635;27;20345;-70
2023/01/30 05:05:17;;;;;;;17.00;9.80;;;;;;;1.04;100.00;98174.38;5160171;27;20141;-67
2023/01/30 05:07:43;;;;;;;14.60;9.02;;;;;;;1.00;100.00;98116.72;5159984;27;20057;-68
2023/01/30 05:10:10;;;;;;;21.65;11.18;;;;;;;1.02;100.00;98065.94;5160008;27;20050;-69
2023/01/30 05:12:37;;;;;;;17.42;8.82;;;;;;;1.06;100.00;98042.56;5160109;27;20371;-65
2023/01/30 05:15:03;;;;;;;15.85;9.10;;;;;;;1.00;100.00;98028.50;5160315;27;20058;-70
2023/01/30 05:17:30;;;;;;;14.05;8.35;;;;;;;0.76;100.00;98004.84;5160110;27;20189;-65
2023/01/30 05:19:57;;;;;;;14.45;8.73;;;;;;;0.83;100.00;97980.81;5160476;27;20042;-68
2023/01/30 05:22:23;;;;;;;13.43;8.73;;;;;;;0.56;100.00;97989.44;5160111;27;20047;-70
2023/01/30 05:24:49;;;;;;;20.30;9.88;;;;;;;0.34;100.00;98012.09;5159713;27;20046;-67
2023/01/30 05:27:15;;;;;;;13.85;8.27;;;;;;;-0.02;100.00;98051.88;5159796;27;20133;-71
2023/01/30 05:29:41;;;;;;;20.45;10.10;;;;;;;0.04;100.00;98109.09;5159348;27;20051;-64
2023/01/30 05:32:11;;;;;;;18.63;9.45;;;;;;;-0.07;100.00;98146.34;5159648;27;20080;-75
2023/01/30 05:34:39;;;;;;;18.52;10.27;;;;;;;-0.08;100.00;98155.53;5159552;27;20059;-71
2023/01/30 05:37:05;;;;;;;21.80;10.60;;;;;;;-0.23;100.00;98177.59;5159816;27;20061;-67
2023/01/30 05:39:31;;;;;;;15.48;8.35;;;;;;;-0.19;100.00;98186.59;5159379;27;20050;-66
2023/01/30 05:41:58;;;;;;;24.85;11.45;;;;;;;0.04;100.00;98183.75;5159430;27;20065;-66
2023/01/30 05:44:24;;;;;;;17.80;9.07;;;;;;;-0.19;100.00;98181.22;5159364;27;20050;-67
2023/01/30 05:46:50;;;;;;;20.80;9.98;;;;;;;-0.26;100.00;98172.84;5159913;27;20114;-66
2023/01/30 05:49:17;;;;;;;20.80;10.30;;;;;;;-0.05;100.00;98168.38;5159251;27;20052;-75
2023/01/30 05:51:43;;;;;;;22.45;10.60;;;;;;;0.06;100.00;98162.63;5159683;27;20110;-66
2023/01/30 05:54:10;;;;;;;19.63;10.05;;;;;;;-0.01;100.00;98152.34;5159279;27;20058;-68
2023/01/30 05:56:36;;;;;;;15.70;9.05;;;;;;;-0.25;100.00;98152.88;5159150;27;20055;-66
2023/01/30 05:59:03;;;;;;;22.33;11.52;;;;;;;-0.01;100.00;98141.56;5159249;27;20072;-71
2023/01/30 06:01:29;;;;;;;14.90;8.73;;;;;;;-0.11;100.00;98140.00;5158744;27;20058;-69
2023/01/30 06:03:57;;;;;;;19.05;9.30;;;;;;;-0.05;100.00;98132.56;5158987;27;20051;-71
2023/01/30 06:06:24;;;;;;;22.38;10.93;;;;;;;-0.11;100.00;98131.13;5158860;27;20328;-63
2023/01/30 06:08:53;;;;;;;15.80;9.02;;;;;;;-0.26;100.00;98127.03;5158712;27;20054;-70
2023/01/30 06:11:20;;;;;;;21.35;11.50;;;;;;;-0.18;100.00;98123.53;5158244;27;20055;-69
2023/01/30 06:13:46;;;;;;;23.25;11.45;;;;;;;-0.07;100.00;98126.69;5150066;27;20055;-66
2023/01/30 06:16:14;;;;;;;22.90;11.18;;;;;;;-0.08;100.00;98123.19;5137880;28;20053;-70
2023/01/30 06:18:40;;;;;;;23.40;11.07;;;;;;;-0.07;100.00;98126.69;5156891;27;20055;-65
2023/01/30 06:21:07;;;;;;;28.10;12.52;;;;;;;0.21;100.00;98110.94;5158767;27;20042;-68
2023/01/30 06:23:33;;;;;;;22.38;9.25;;;;;;;0.00;100.00;98124.31;5158573;27;20046;-65
2023/01/30 06:26:00;;;;;;;22.85;12.05;;;;;;;-0.15;100.00;98109.44;5158602;27;20062;-70
2023/01/30 06:28:27;;;;;;;25.67;11.38;;;;;;;-0.32;100.00;98109.47;5158688;27;20050;-68
2023/01/30 06:30:53;;;;;;;22.08;10.88;;;;;;;0.11;100.00;98109.38;5158846;27;20046;-63
2023/01/30 06:33:20;;;;;;;20.45;9.43;;;;;;;-0.08;100.00;98104.34;5158286;27;20066;-62
2023/01/30 06:35:49;;;;;;;13.00;7.55;;;;;;;-0.06;100.00;98102.13;5158693;27;20060;-68
2023/01/30 06:38:16;;;;;;;20.30;10.57;;;;;;;-0.02;100.00;98094.97;5158623;27;20102;-66
2023/01/30 06:40:45;;;;;;;17.45;9.73;;;;;;;-0.02;100.00;98080.72;5158222;27;20051;-60
2023/01/30 06:43:12;;;;;;;22.90;9.48;;;;;;;-0.10;100.00;98078.81;5158141;27;20468;-66
2023/01/30 06:45:38;;;;;;;18.10;9.18;;;;;;;-0.14;100.00;98080.59;5158229;27;20343;-70
2023/01/30 06:48:05;;;;;;;16.75;8.57;;;;;;;-0.05;100.00;98068.69;5158536;27;20058;-70
2023/01/30 06:50:31;;;;;;;16.27;8.68;;;;;;;0.09;100.00;98060.38;5158337;27;20046;-66
2023/01/30 06:53:00;;;;;;;14.70;8.85;;;;;;;0.03;100.00;98060.88;5158272;27;20579;-68
2023/01/30 06:55:27;;;;;;;18.45;9.25;;;;;;;0.10;100.00;98058.47;5158192;27;20056;-70
2023/01/30 06:58:01;;;;;;;18.05;9.65;;;;;;;0.04;100.00;98046.31;5158050;27;20472;-68
2023/01/30 07:00:29;;;;;;;18.67;8.88;;;;;;;0.39;100.00;98058.50;5157851;27;20079;-64
2023/01/30 07:02:55;;;;;;;21.13;11.30;;;;;;;-0.05;100.00;98049.81;5157600;27;20047;-66
2023/01/30 07:05:21;;;;;;;22.20;9.15;;;;;;;0.01;100.00;98052.34;5157967;27;20384;-69
2023/01/30 07:07:47;;;;;;;15.07;8.45;;;;;;;-0.01;100.00;98052.66;5157906;27;20416;-66
2023/01/30 07:10:14;;;;;;;15.68;7.13;;;;;;;0.04;100.00;98049.00;5158249;27;20053;-69
2023/01/30 07:12:40;;;;;;;22.70;11.68;;;;;;;0.13;100.00;98038.97;5157550;27;20058;-64
2023/01/30 07:15:07;;;;;;;24.38;10.55;;;;;;;0.00;100.00;98038.09;5158075;27;20146;-64
2023/01/30 07:17:34;;;;;;;19.10;10.63;;;;;;;0.40;100.00;98037.72;5157946;27;20050;-67
2023/01/30 07:20:00;;;;;;;18.30;8.93;;;;;;;0.16;100.00;98028.31;5157706;27;20408;-68
2023/01/30 07:22:26;;;;;;;25.02;11.70;;;;;;;0.30;100.00;98024.63;5161504;27;20058;-67
2023/01/30 07:24:53;;;;;;;18.25;9.88;;;;;;;0.15;100.00;98007.09;5161786;27;20057;-69
2023/01/30 07:27:19;;;;;;;18.20;9.25;;;;;;;0.17;100.00;98008.38;5161521;27;20137;-66
2023/01/30 07:29:45;;;;;;;17.05;8.38;;;;;;;0.03;100.00;97996.22;5161660;27;20073;-71
2023/01/30 07:32:14;;;;;;;19.25;10.65;;;;;;;0.18;100.00;97999.16;5161423;27;20065;-66
2023/01/30 07:34:41;;;;;;;19.98;9.93;;;;;;;0.22;100.00;97999.28;5161401;27;20408;-68
2023/01/30 07:37:08;;;;;;;17.25;10.15;;;;;;;0.22;100.00;97996.59;5161068;27;20443;-65
2023/01/30 07:39:34;;;;;;;18.90;9.68;;;;;;;0.36;100.00;97993.66;5161179;27;20047;-70
2023/01/30 07:42:01;;;;;;;19.20;9.30;;;;;;;0.17;100.00;97991.41;5161000;27;20058;-73
2023/01/30 07:44:27;;;;;;;17.98;8.25;;;;;;;0.29;100.00;97988.00;5161167;27;20057;-72
2023/01/30 07:46:54;;;;;;;18.15;8.98;;;;;;;0.20;100.00;97974.56;5161386;27;20092;-69
2023/01/30 07:49:20;;;;;;;21.00;11.25;;;;;;;0.31;100.00;97966.91;5161094;27;20138;-72
2023/01/30 07:51:47;;;;;;;19.70;9.50;;;;;;;0.36;100.00;97967.50;5161244;27;20467;-61
2023/01/30 07:54:13;;;;;;;20.55;9.77;;;;;;;0.16;100.00;97942.09;5161370;27;20072;-73
2023/01/30 07:56:40;;;;;;;16.52;8.75;;;;;;;0.15;100.00;97942.44;5158816;27;20043;-67
2023/01/30 07:59:08;;;;;;;21.15;9.85;;;;;;;0.35;100.00;97955.16;5156904;27;20050;-69
2023/01/30 08:01:35;;;;;;;19.60;9.60;;;;;;;0.15;100.00;97939.72;5160936;27;20324;-70
2023/01/30 08:04:01;;;;;;;18.95;10.43;;;;;;;0.27;100.00;97939.81;5160917;27;20051;-66
2023/01/30 08:06:27;;;;;;;17.50;9.50;;;;;;;0.27;100.00;97937.13;5160916;27;20438;-69
2023/01/30 08:08:54;;;;;;;20.17;9.48;;;;;;;0.09;100.00;97944.50;5160645;27;20335;-66
2023/01/30 08:11:20;;;;;;;24.05;12.02;;;;;;;0.30;100.00;97941.88;5160556;27;20054;-67
2023/01/30 08:13:46;;;;;;;19.98;10.57;;;;;;;0.38;100.00;97926.75;5160452;27;20145;-67
2023/01/30 08:16:13;;;;;;;17.75;9.20;;;;;;;0.25;100.00;97928.56;5160504;27;20097;-66
2023/01/30 08:18:39;;;;;;;19.83;9.82;;;;;;;0.22;100.00;97927.31;5160613;27;20133;-65
2023/01/30 08:21:06;;;;;;;23.88;10.68;;;;;;;0.38;100.00;97916.75;5160774;27;20054;-68
2023/01/30 08:23:33;;;;;;;24.50;9.73;;;;;;;0.20;100.00;97920.66;5160624;27;20046;-65
2023/01/30 08:26:02;;;;;;;14.57;7.10;;;;;;;0.09;100.00;97924.84;5160638;27;20137;-67
2023/01/30 08:28:28;;;;;;;19.05;10.60;;;;;;;0.22;100.00;97926.53;5160902;27;20324;-66
2023/01/30 08:30:55;;;;;;;19.92;9.48;;;;;;;0.28;100.00;97917.13;5160539;27;20106;-66
2023/01/30 08:33:22;;;;;;;25.58;11.85;;;;;;;0.28;100.00;97916.34;5159966;27;20047;-67
2023/01/30 08:35:49;;;;;;;25.38;11.30;;;;;;;0.18;100.00;97918.31;5160682;27;20439;-66
2023/01/30 08:38:15;;;;;;;20.33;11.75;;;;;;;0.13;100.00;97906.91;5160881;27;20042;-67
2023/01/30 08:40:41;;;;;;;17.35;8.35;;;;;;;0.16;100.00;97895.47;5160450;27;20437;-69
2023/01/30 08:43:09;;;;;;;21.63;10.57;;;;;;;0.10;100.00;97889.50;5160129;27;20050;-69
2023/01/30 08:45:35;;;;;;;26.00;11.18;;;;;;;0.19;100.00;97890.22;5160216;27;20404;-67
2023/01/30 08:48:04;;;;;;;21.95;9.85;;;;;;;0.11;100.00;97883.00;5158076;27;20396;-70
2023/01/30 08:50:31;;;;;;;28.05;12.18;;;;;;;0.35;100.00;97874.25;5159978;27;20055;-69
2023/01/30 08:52:57;;;;;;;22.08;10.43;;;;;;;0.21;100.00;97877.22;5160333;27;20077;-66
2023/01/30 08:55:23;;;;;;;19.08;9.57;;;;;;;-0.03;100.00;97872.47;5159796;27;20416;-71
2023/01/30 08:57:49;;;;;;;18.48;10.15;;;;;;;0.20;100.00;97866.75;5160273;27;20316;-66
2023/01/30 09:00:17;;;;;;;28.27;13.27;;;;;;;0.36;100.00;97856.97;5160181;27;20065;-71
2023/01/30 09:02:44;;;;;;;24.38;11.05;;;;;;;0.24;100.00;97848.84;5160172;27;20047;-67
2023/01/30 09:05:10;;;;;;;22.52;10.75;;;;;;;0.38;100.00;97841.25;5159823;27;20047;-70
2023/01/30 09:07:36;;;;;;;30.30;11.35;;;;;;;0.12;100.00;97837.97;5160020;27;20047;-69
2023/01/30 09:10:03;;;;;;;24.27;10.52;;;;;;;0.15;100.00;97821.94;5157625;27;20051;-69
2023/01/30 09:12:29;;;;;;;21.33;9.15;;;;;;;0.06;100.00;97828.50;5159765;27;20046;-68
2023/01/30 09:14:57;;;;;;;19.05;9.65;;;;;;;-0.02;100.00;97811.28;5160062;27;20054;-69
2023/01/30 09:17:24;;;;;;;24.98;11.30;;;;;;;0.25;100.00;97790.31;5159785;27;20050;-69
2023/01/30 09:19:50;;;;;;;21.23;10.60;;;;;;;0.15;100.00;97783.41;5159992;27;20047;-70
2023/01/30 09:22:16;;;;;;;18.30;8.25;;;;;;;0.05;100.00;97786.50;5159574;27;20051;-71
2023/01/30 09:24:43;;;;;;;28.50;11.02;;;;;;;0.35;100.00;97782.59;5159450;27;20051;-69
2023/01/30 09:27:09;;;;;;;30.73;12.85;;;;;;;0.44;100.00;97783.31;5159413;27;20431;-65
2023/01/30 09:29:35;;;;;;;27.52;13.98;;;;;;;0.33;100.00;97778.66;5159295;27;20046;-69
2023/01/30 09:32:01;;;;;;;29.27;12.55;;;;;;;0.27;100.00;97775.41;5159199;27;20050;-68
2023/01/30 09:34:28;;;;;;;29.73;13.85;;;;;;;0.34;100.00;97767.56;5159296;27;20047;-71
2023/01/30 09:36:54;;;;;;;26.48;13.05;;;;;;;0.45;100.00;97768.72;5159164;27;20050;-70
2023/01/30 09:39:21;;;;;;;23.10;11.50;;;;;;;0.25;100.00;97764.16;5159315;27;20057;-69
2023/01/30 09:42:04;;;;;;;24.23;11.38;;;;;;;0.34;100.00;97761.38;5159423;27;20064;-68
2023/01/30 09:44:59;;;;;;;26.25;11.30;;;;;;;0.23;100.00;97752.91;5157990;27;20079;-68
2023/01/30 09:47:37;;;;;;;20.27;10.73;;;;;;;0.41;100.00;97746.25;5159605;27;20054;-69
2023/01/30 09:50:20;;;;;;;20.60;10.02;;;;;;;0.27;100.00;97743.06;5159064;27;20141;-70
2023/01/30 09:52:55;;;;;;;28.00;11.48;;;;;;;0.36;100.00;97751.03;5159499;27;20065;-67
2023/01/30 09:55:24;;;;;;;27.02;13.20;;;;;;;0.45;100.00;97740.97;5158900;27;20054;-68
2023/01/30 09:57:51;;;;;;;24.13;10.80;;;;;;;0.61;100.00;97747.31;5158946;27;20046;-73
2023/01/30 10:00:24;;;;;;;23.75;10.90;;;;;;;0.73;100.00;97740.34;5159366;27;20046;-62
2023/01/30 10:02:59;;;;;;;21.35;9.80;;;;;;;0.30;100.00;97731.59;5158724;27;20456;-62
2023/01/30 10:05:35;;;;;;;23.17;10.52;;;;;;;0.66;100.00;97716.63;5159232;27;20051;-69
2023/01/30 10:08:22;;;;;;;19.20;10.00;;;;;;;0.35;100.00;97715.22;5159019;27;20051;-63
2023/01/30 10:10:56;;;;;;;16.08;8.82;;;;;;;0.55;100.00;97699.31;5159049;27;20394;-69
2023/01/30 10:13:40;;;;;;;16.13;8.32;;;;;;;0.36;100.00;97705.22;5159060;27;20060;-70
2023/01/30 10:16:15;;;;;;;17.27;7.32;;;;;;;0.41;100.00;97697.72;5158859;27;20057;-73
2023/01/30 10:18:58;;;;;;;19.48;8.90;;;;;;;0.56;100.00;97700.88;5158638;27;20099;-66
2023/01/30 10:21:37;;;;;;;19.17;8.70;;;;;;;0.56;100.00;97695.47;5158657;27;20082;-66
2023/01/30 10:24:17;;;;;;;15.60;8.05;;;;;;;0.36;100.00;97700.59;5158446;27;20054;-66
2023/01/30 10:26:45;;;;;;;16.73;7.32;;;;;;;0.30;100.00;97695.75;5158420;27;20439;-70
2023/01/30 10:29:17;;;;;;;16.88;7.45;;;;;;;0.43;100.00;97691.97;5158365;27;20304;-64
2023/01/30 10:31:48;;;;;;;27.73;9.98;;;;;;;0.50;100.00;97680.63;5158533;27;20073;-66
2023/01/30 10:34:17;;;;;;;16.50;8.57;;;;;;;0.78;100.00;97675.41;5158493;27;20051;-65
2023/01/30 10:36:51;;;;;;;19.27;8.70;;;;;;;0.78;100.00;97683.50;5158583;27;20047;-69
2023/01/30 10:39:25;;;;;;;13.75;8.48;;;;;;;0.46;100.00;97688.59;5158316;27;20050;-64
2023/01/30 10:41:58;;;;;;;19.90;9.32;;;;;;;0.45;100.00;97676.25;5158094;27;20077;-72
2023/01/30 10:44:24;;;;;;;18.58;10.02;;;;;;;0.53;100.00;97671.88;5158488;27;20111;-63
2023/01/30 10:47:19;;;;;;;16.48;8.88;;;;;;;0.47;100.00;97672.09;5158484;27;20051;-66
2023/01/30 10:49:48;;;;;;;;;;;;;;;0.49;100.00;97660.97;5158656;27;20193;-61
2023/01/30 10:52:30;;;;;;;14.13;8.70;;;;;;;0.52;100.00;97667.63;5158235;27;19946;-66
2023/01/30 10:55:05;;;;;;;14.30;7.78;;;;;;;0.76;100.00;97656.84;5158313;27;20051;-65
2023/01/30 10:57:41;;;;;;;17.88;8.07;;;;;;;0.57;100.00;97667.41;5157959;27;20094;-66
2023/01/30 11:00:20;;;;;;;14.70;8.68;;;;;;;0.52;100.00;97654.91;5156671;27;20061;-66
2023/01/30 11:03:11;;;;;;;15.93;8.55;;;;;;;0.69;100.00;97659.31;5141733;27;20133;-68
2023/01/30 11:05:45;;;;;;;19.35;9.60;;;;;;;0.65;100.00;97653.03;5157796;27;20062;-66
2023/01/30 11:08:19;;;;;;;15.15;8.77;;;;;;;0.37;100.00;97644.81;5157771;27;20055;-68
2023/01/30 11:10:45;;;;;;;20.55;9.50;;;;;;;0.36;100.00;97630.50;5158346;27;20319;-66
2023/01/30 11:13:16;;;;;;;15.98;8.88;;;;;;;0.52;100.00;97613.69;5157790;27;20050;-74
2023/01/30 11:15:45;;;;;;;15.38;8.30;;;;;;;0.61;100.00;97617.84;5158375;27;20193;-68
2023/01/30 11:18:13;;;;;;;15.95;8.52;;;;;;;0.47;100.00;97620.09;5157985;27;20092;-66
2023/01/30 11:20:40;;;;;;;16.92;8.70;;;;;;;0.64;100.00;97611.78;5155543;27;20062;-66
2023/01/30 11:23:21;;;;;;;16.02;7.55;;;;;;;0.40;100.00;97615.25;5157897;27;20051;-70
2023/01/30 11:25:50;;;;;;;17.38;9.02;;;;;;;0.49;100.00;97608.97;5158004;27;20046;-67
2023/01/30 11:28:18;;;;;;;17.52;8.63;;;;;;;0.47;100.00;97606.63;5157449;27;20056;-70
2023/01/30 11:30:52;;;;;;;11.98;8.00;;;;;;;0.52;100.00;97592.13;5158058;27;20320;-66
2023/01/30 11:33:21;;;;;;;13.18;7.22;;;;;;;0.51;100.00;97598.63;5157567;27;20050;-68